AXM6350 WBGG-WBKK
Flight info
| Callsign | AXM6350 |
|---|---|
| Flight time | 1h 12m |
| Altitude | 37000 |
| Route | KIKAK1J KIKAK DCT PILAX G580 BRU M646 DULIM DULIM2A |
| Aircraft | A320/M-SDE3FGHIRWY/LB1 |
Departure
| Time | 2026-05-03 20:53 |
|---|---|
| Airport | Kuching International Airport (WBGG) |
Arrival
| Time | 2026-05-03 22:06 |
|---|---|
| Airport | Kota Kinabalu International Airport (WBKK) |
| Time | Latitude | Longitude | Altitude | Speed | Heading |
|---|---|---|---|---|---|
| 2026-05-03 20:33 | 1.48570 | 110.33973 | 78 ft | 0 kts | 338° |
| 2026-05-03 20:46 | 1.48567 | 110.33974 | 78 ft | 2 kts | 338° |
| 2026-05-03 20:47 | 1.48543 | 110.33984 | 67 ft | 4 kts | 338° |
| 2026-05-03 20:47 | 1.48519 | 110.33993 | 69 ft | 2 kts | 340° |
| 2026-05-03 20:47 | 1.48499 | 110.34002 | 67 ft | 4 kts | 315° |
| 2026-05-03 20:47 | 1.48491 | 110.34021 | 69 ft | 3 kts | 249° |
| 2026-05-03 20:48 | 1.48500 | 110.34044 | 69 ft | 2 kts | 248° |
| 2026-05-03 20:48 | 1.48501 | 110.34045 | 69 ft | 0 kts | 248° |
| 2026-05-03 20:50 | 1.48499 | 110.34040 | 68 ft | 4 kts | 248° |
| 2026-05-03 20:50 | 1.48476 | 110.34015 | 76 ft | 8 kts | 196° |
| 2026-05-03 20:50 | 1.48429 | 110.34019 | 78 ft | 7 kts | 195° |
| 2026-05-03 20:51 | 1.48392 | 110.33963 | 70 ft | 13 kts | 248° |
| 2026-05-03 20:51 | 1.48355 | 110.33870 | 70 ft | 15 kts | 248° |
| 2026-05-03 20:51 | 1.48310 | 110.33785 | 78 ft | 13 kts | 213° |
| 2026-05-03 20:51 | 1.48245 | 110.33795 | 85 ft | 4 kts | 159° |
| 2026-05-03 20:52 | 1.48225 | 110.33803 | 89 ft | 8 kts | 159° |
| 2026-05-03 20:52 | 1.48164 | 110.33827 | 91 ft | 9 kts | 152° |
| 2026-05-03 20:52 | 1.48167 | 110.33870 | 91 ft | 0 kts | 67° |
| 2026-05-03 20:53 | 1.48211 | 110.33978 | 90 ft | 50 kts | 68° |
| 2026-05-03 20:53 | 1.48431 | 110.34531 | 89 ft | 118 kts | 68° |
| 2026-05-03 20:53 | 1.48805 | 110.35478 | 95 ft | 170 kts | 69° |
| 2026-05-03 20:53 | 1.49234 | 110.36577 | 724 ft | 169 kts | 69° |
| 2026-05-03 20:54 | 1.49662 | 110.37667 | 1424 ft | 169 kts | 69° |
| 2026-05-03 20:54 | 1.50615 | 110.40080 | 2279 ft | 204 kts | 68° |
| 2026-05-03 20:54 | 1.51169 | 110.41484 | 2607 ft | 230 kts | 68° |
| 2026-05-03 20:55 | 1.51788 | 110.43039 | 3089 ft | 251 kts | 68° |
| 2026-05-03 20:55 | 1.52450 | 110.44713 | 3738 ft | 265 kts | 68° |
| 2026-05-03 20:55 | 1.53131 | 110.46447 | 4599 ft | 270 kts | 68° |
| 2026-05-03 20:55 | 1.53829 | 110.48210 | 5449 ft | 275 kts | 68° |
| 2026-05-03 20:56 | 1.54535 | 110.49998 | 6322 ft | 279 kts | 68° |
| 2026-05-03 20:56 | 1.55254 | 110.51815 | 7100 ft | 284 kts | 67° |
| 2026-05-03 20:56 | 1.56219 | 110.53518 | 7905 ft | 287 kts | 52° |
| 2026-05-03 20:56 | 1.57607 | 110.54958 | 8732 ft | 290 kts | 41° |
| 2026-05-03 20:57 | 1.59137 | 110.56288 | 9559 ft | 293 kts | 41° |
| 2026-05-03 20:57 | 1.60681 | 110.57643 | 10303 ft | 297 kts | 41° |
| 2026-05-03 20:57 | 1.62285 | 110.59066 | 10606 ft | 319 kts | 42° |
| 2026-05-03 20:57 | 1.63998 | 110.60598 | 10837 ft | 340 kts | 42° |
| 2026-05-03 20:58 | 1.65786 | 110.62202 | 11364 ft | 349 kts | 42° |
| 2026-05-03 20:58 | 1.67605 | 110.63831 | 12020 ft | 354 kts | 42° |
| 2026-05-03 20:58 | 1.69452 | 110.65481 | 12697 ft | 358 kts | 42° |
| 2026-05-03 20:58 | 1.71321 | 110.67150 | 13355 ft | 362 kts | 41° |
| 2026-05-03 20:59 | 1.73212 | 110.68836 | 13974 ft | 366 kts | 41° |
| 2026-05-03 20:59 | 1.75120 | 110.70537 | 14559 ft | 369 kts | 42° |
| 2026-05-03 20:59 | 1.77042 | 110.72249 | 15169 ft | 371 kts | 42° |
| 2026-05-03 20:59 | 1.78979 | 110.73974 | 15761 ft | 374 kts | 42° |
| 2026-05-03 21:00 | 1.80930 | 110.75711 | 16339 ft | 377 kts | 42° |
| 2026-05-03 21:00 | 1.82229 | 110.76869 | 16719 ft | 379 kts | 43° |
| 2026-05-03 21:00 | 1.84867 | 110.79239 | 17482 ft | 383 kts | 45° |
| 2026-05-03 21:00 | 1.86615 | 110.81245 | 18047 ft | 384 kts | 53° |
| 2026-05-03 21:01 | 1.88253 | 110.83372 | 18575 ft | 387 kts | 53° |
| 2026-05-03 21:01 | 1.89902 | 110.85507 | 19065 ft | 389 kts | 53° |
| 2026-05-03 21:01 | 1.91548 | 110.87636 | 19546 ft | 392 kts | 53° |
| 2026-05-03 21:01 | 1.93227 | 110.89800 | 20027 ft | 395 kts | 53° |
| 2026-05-03 21:02 | 1.94918 | 110.91979 | 20504 ft | 399 kts | 53° |
| 2026-05-03 21:02 | 1.96626 | 110.94179 | 20984 ft | 402 kts | 53° |
| 2026-05-03 21:02 | 1.98350 | 110.96397 | 21455 ft | 405 kts | 53° |
| 2026-05-03 21:02 | 2.00081 | 110.98626 | 21928 ft | 408 kts | 53° |
| 2026-05-03 21:03 | 2.01829 | 111.00880 | 22393 ft | 411 kts | 53° |
| 2026-05-03 21:03 | 2.03561 | 111.03116 | 22828 ft | 414 kts | 53° |
| 2026-05-03 21:03 | 2.05331 | 111.05404 | 23261 ft | 417 kts | 53° |
| 2026-05-03 21:03 | 2.07112 | 111.07706 | 23650 ft | 420 kts | 53° |
| 2026-05-03 21:04 | 2.08907 | 111.10024 | 24003 ft | 423 kts | 53° |
| 2026-05-03 21:04 | 2.10714 | 111.12356 | 24356 ft | 425 kts | 53° |
| 2026-05-03 21:04 | 2.12529 | 111.14698 | 24705 ft | 427 kts | 53° |
| 2026-05-03 21:04 | 2.14351 | 111.17052 | 25063 ft | 429 kts | 53° |
| 2026-05-03 21:05 | 2.16183 | 111.19419 | 25403 ft | 431 kts | 53° |
| 2026-05-03 21:05 | 2.18023 | 111.21793 | 25737 ft | 433 kts | 53° |
| 2026-05-03 21:05 | 2.19876 | 111.24180 | 26069 ft | 435 kts | 53° |
| 2026-05-03 21:05 | 2.21738 | 111.26581 | 26387 ft | 437 kts | 53° |
| 2026-05-03 21:06 | 2.23605 | 111.28990 | 26701 ft | 439 kts | 53° |
| 2026-05-03 21:06 | 2.25481 | 111.31412 | 27011 ft | 441 kts | 53° |
| 2026-05-03 21:06 | 2.27364 | 111.33845 | 27324 ft | 443 kts | 53° |
| 2026-05-03 21:06 | 2.29259 | 111.36294 | 27618 ft | 445 kts | 53° |
| 2026-05-03 21:07 | 2.31163 | 111.38750 | 27910 ft | 448 kts | 53° |
| 2026-05-03 21:07 | 2.33134 | 111.41171 | 28193 ft | 450 kts | 51° |
| 2026-05-03 21:07 | 2.35195 | 111.43532 | 28479 ft | 452 kts | 49° |
| 2026-05-03 21:07 | 2.37326 | 111.45865 | 28756 ft | 454 kts | 48° |
| 2026-05-03 21:08 | 2.39458 | 111.48153 | 29017 ft | 456 kts | 48° |
| 2026-05-03 21:08 | 2.41624 | 111.50482 | 29280 ft | 458 kts | 48° |
| 2026-05-03 21:08 | 2.43793 | 111.52841 | 29530 ft | 460 kts | 49° |
| 2026-05-03 21:08 | 2.45943 | 111.55216 | 29787 ft | 462 kts | 49° |
| 2026-05-03 21:09 | 2.48093 | 111.57617 | 30021 ft | 463 kts | 49° |
| 2026-05-03 21:09 | 2.50245 | 111.60034 | 30208 ft | 465 kts | 49° |
| 2026-05-03 21:09 | 2.52401 | 111.62457 | 30390 ft | 467 kts | 49° |
| 2026-05-03 21:09 | 2.54572 | 111.64886 | 30579 ft | 469 kts | 49° |
| 2026-05-03 21:10 | 2.56753 | 111.67320 | 30767 ft | 470 kts | 49° |
| 2026-05-03 21:10 | 2.58938 | 111.69755 | 30989 ft | 470 kts | 49° |
| 2026-05-03 21:10 | 2.61121 | 111.72187 | 31265 ft | 469 kts | 49° |
| 2026-05-03 21:10 | 2.63272 | 111.74583 | 31533 ft | 468 kts | 49° |
| 2026-05-03 21:11 | 2.65442 | 111.77003 | 31809 ft | 467 kts | 49° |
| 2026-05-03 21:11 | 2.67610 | 111.79425 | 32085 ft | 466 kts | 49° |
| 2026-05-03 21:11 | 2.69772 | 111.81840 | 32359 ft | 466 kts | 49° |
| 2026-05-03 21:11 | 2.71936 | 111.84251 | 32642 ft | 465 kts | 49° |
| 2026-05-03 21:12 | 2.74093 | 111.86653 | 32931 ft | 464 kts | 49° |
| 2026-05-03 21:12 | 2.76250 | 111.89057 | 33214 ft | 463 kts | 49° |
| 2026-05-03 21:12 | 2.78405 | 111.91456 | 33506 ft | 462 kts | 49° |
| 2026-05-03 21:12 | 2.80550 | 111.93846 | 33797 ft | 462 kts | 49° |
| 2026-05-03 21:13 | 2.82697 | 111.96242 | 34067 ft | 461 kts | 49° |
| 2026-05-03 21:13 | 2.84805 | 111.98598 | 34315 ft | 460 kts | 49° |
| 2026-05-03 21:13 | 2.86942 | 112.00987 | 34563 ft | 460 kts | 49° |
| 2026-05-03 21:13 | 2.89050 | 112.03379 | 34806 ft | 459 kts | 52° |
| 2026-05-03 21:14 | 2.90913 | 112.05966 | 35046 ft | 458 kts | 56° |
| 2026-05-03 21:14 | 2.92719 | 112.08598 | 35272 ft | 457 kts | 56° |
| 2026-05-03 21:14 | 2.94519 | 112.11215 | 35511 ft | 456 kts | 55° |
| 2026-05-03 21:14 | 2.96318 | 112.13828 | 35745 ft | 455 kts | 55° |
| 2026-05-03 21:15 | 2.98111 | 112.16437 | 36002 ft | 454 kts | 55° |
| 2026-05-03 21:15 | 2.99893 | 112.19036 | 36246 ft | 452 kts | 55° |
| 2026-05-03 21:15 | 3.01672 | 112.21630 | 36479 ft | 451 kts | 55° |
| 2026-05-03 21:15 | 3.03446 | 112.24216 | 36696 ft | 450 kts | 55° |
| 2026-05-03 21:16 | 3.05193 | 112.26762 | 36876 ft | 450 kts | 55° |
| 2026-05-03 21:16 | 3.06963 | 112.29343 | 36930 ft | 449 kts | 55° |
| 2026-05-03 21:16 | 3.10495 | 112.34486 | 36931 ft | 448 kts | 55° |
| 2026-05-03 21:17 | 3.13453 | 112.38792 | 36931 ft | 448 kts | 55° |
| 2026-05-03 21:17 | 3.17551 | 112.44774 | 36929 ft | 448 kts | 55° |
| 2026-05-03 21:18 | 3.21068 | 112.49906 | 36930 ft | 446 kts | 55° |
| 2026-05-03 21:18 | 3.24573 | 112.55019 | 36932 ft | 446 kts | 55° |
| 2026-05-03 21:19 | 3.28088 | 112.60133 | 36938 ft | 446 kts | 55° |
| 2026-05-03 21:19 | 3.31604 | 112.65254 | 36943 ft | 446 kts | 55° |
| 2026-05-03 21:20 | 3.35108 | 112.70378 | 36935 ft | 446 kts | 55° |
| 2026-05-03 21:20 | 3.38619 | 112.75498 | 36942 ft | 446 kts | 55° |
| 2026-05-03 21:21 | 3.42129 | 112.80625 | 36939 ft | 446 kts | 56° |
| 2026-05-03 21:21 | 3.45668 | 112.85724 | 36943 ft | 446 kts | 54° |
| 2026-05-03 21:22 | 3.49371 | 112.90649 | 36946 ft | 446 kts | 52° |
| 2026-05-03 21:22 | 3.53181 | 112.95560 | 36941 ft | 446 kts | 52° |
| 2026-05-03 21:23 | 3.56949 | 113.00494 | 36933 ft | 446 kts | 53° |
| 2026-05-03 21:23 | 3.60685 | 113.05454 | 36939 ft | 446 kts | 53° |
| 2026-05-03 21:24 | 3.64419 | 113.10419 | 36940 ft | 446 kts | 53° |
| 2026-05-03 21:24 | 3.68160 | 113.15378 | 36942 ft | 446 kts | 53° |
| 2026-05-03 21:25 | 3.71914 | 113.20329 | 36942 ft | 446 kts | 53° |
| 2026-05-03 21:25 | 3.75662 | 113.25288 | 36939 ft | 446 kts | 53° |
| 2026-05-03 21:26 | 3.79380 | 113.30223 | 36939 ft | 446 kts | 53° |
| 2026-05-03 21:26 | 3.83122 | 113.35184 | 36946 ft | 446 kts | 53° |
| 2026-05-03 21:27 | 3.86872 | 113.40153 | 36943 ft | 446 kts | 53° |
| 2026-05-03 21:27 | 3.90618 | 113.45115 | 36945 ft | 447 kts | 53° |
| 2026-05-03 21:28 | 3.94366 | 113.50089 | 36937 ft | 447 kts | 53° |
| 2026-05-03 21:28 | 3.98088 | 113.55027 | 36944 ft | 447 kts | 53° |
| 2026-05-03 21:29 | 4.01833 | 113.59993 | 36941 ft | 447 kts | 53° |
| 2026-05-03 21:29 | 4.05578 | 113.64960 | 36938 ft | 447 kts | 53° |
| 2026-05-03 21:30 | 4.09320 | 113.69927 | 36946 ft | 447 kts | 53° |
| 2026-05-03 21:30 | 4.13065 | 113.74899 | 36946 ft | 447 kts | 53° |
| 2026-05-03 21:31 | 4.16812 | 113.79878 | 36937 ft | 447 kts | 53° |
| 2026-05-03 21:31 | 4.19928 | 113.84011 | 36936 ft | 448 kts | 53° |
| 2026-05-03 21:32 | 4.23683 | 113.88998 | 36934 ft | 448 kts | 53° |
| 2026-05-03 21:32 | 4.27438 | 113.93983 | 36934 ft | 448 kts | 53° |
| 2026-05-03 21:33 | 4.31158 | 113.98994 | 36938 ft | 448 kts | 55° |
| 2026-05-03 21:33 | 4.34558 | 114.04224 | 36936 ft | 448 kts | 59° |
| 2026-05-03 21:34 | 4.37784 | 114.09571 | 36939 ft | 448 kts | 59° |
| 2026-05-03 21:34 | 4.41050 | 114.14896 | 36942 ft | 448 kts | 58° |
| 2026-05-03 21:35 | 4.44365 | 114.20145 | 36942 ft | 448 kts | 58° |
| 2026-05-03 21:35 | 4.47722 | 114.25413 | 36941 ft | 448 kts | 58° |
| 2026-05-03 21:36 | 4.51067 | 114.30695 | 36940 ft | 448 kts | 58° |
| 2026-05-03 21:36 | 4.54396 | 114.35985 | 36942 ft | 448 kts | 58° |
| 2026-05-03 21:37 | 4.57724 | 114.41276 | 36939 ft | 449 kts | 58° |
| 2026-05-03 21:37 | 4.61056 | 114.46568 | 36937 ft | 448 kts | 58° |
| 2026-05-03 21:38 | 4.64366 | 114.51823 | 36944 ft | 448 kts | 58° |
| 2026-05-03 21:38 | 4.67692 | 114.57110 | 36945 ft | 448 kts | 58° |
| 2026-05-03 21:39 | 4.71028 | 114.62397 | 36941 ft | 448 kts | 58° |
| 2026-05-03 21:39 | 4.74367 | 114.67686 | 36939 ft | 448 kts | 58° |
| 2026-05-03 21:40 | 4.77689 | 114.72975 | 36938 ft | 448 kts | 58° |
| 2026-05-03 21:40 | 4.81007 | 114.78266 | 36936 ft | 448 kts | 58° |
| 2026-05-03 21:41 | 4.84334 | 114.83555 | 36929 ft | 448 kts | 58° |
| 2026-05-03 21:41 | 4.87737 | 114.88787 | 36934 ft | 448 kts | 52° |
| 2026-05-03 21:42 | 4.91857 | 114.93495 | 36583 ft | 449 kts | 49° |
| 2026-05-03 21:42 | 4.93936 | 114.95840 | 36020 ft | 451 kts | 49° |
| 2026-05-03 21:42 | 4.96023 | 114.98198 | 35189 ft | 454 kts | 49° |
| 2026-05-03 21:43 | 4.98099 | 115.00551 | 34353 ft | 458 kts | 49° |
| 2026-05-03 21:43 | 5.00224 | 115.02957 | 33367 ft | 463 kts | 49° |
| 2026-05-03 21:43 | 5.02375 | 115.05390 | 32381 ft | 466 kts | 49° |
| 2026-05-03 21:43 | 5.04531 | 115.07827 | 31538 ft | 467 kts | 49° |
| 2026-05-03 21:44 | 5.06675 | 115.10251 | 30966 ft | 461 kts | 49° |
| 2026-05-03 21:44 | 5.08798 | 115.12652 | 30312 ft | 459 kts | 49° |
| 2026-05-03 21:44 | 5.10911 | 115.15042 | 29621 ft | 456 kts | 49° |
| 2026-05-03 21:44 | 5.13000 | 115.17409 | 28985 ft | 451 kts | 49° |
| 2026-05-03 21:45 | 5.15069 | 115.19752 | 28370 ft | 446 kts | 49° |
| 2026-05-03 21:45 | 5.17114 | 115.22065 | 27756 ft | 442 kts | 49° |
| 2026-05-03 21:45 | 5.19144 | 115.24363 | 27152 ft | 437 kts | 49° |
| 2026-05-03 21:45 | 5.21152 | 115.26635 | 26557 ft | 434 kts | 49° |
| 2026-05-03 21:46 | 5.23145 | 115.28893 | 25966 ft | 430 kts | 49° |
| 2026-05-03 21:46 | 5.25117 | 115.31127 | 25393 ft | 426 kts | 49° |
| 2026-05-03 21:46 | 5.27073 | 115.33345 | 24805 ft | 422 kts | 49° |
| 2026-05-03 21:46 | 5.28986 | 115.35515 | 24281 ft | 418 kts | 49° |
| 2026-05-03 21:47 | 5.30908 | 115.37689 | 23758 ft | 415 kts | 49° |
| 2026-05-03 21:47 | 5.32819 | 115.39848 | 23211 ft | 411 kts | 49° |
| 2026-05-03 21:47 | 5.34706 | 115.41983 | 22696 ft | 406 kts | 49° |
| 2026-05-03 21:47 | 5.36573 | 115.44094 | 22206 ft | 401 kts | 50° |
| 2026-05-03 21:48 | 5.38415 | 115.46179 | 21717 ft | 397 kts | 50° |
| 2026-05-03 21:48 | 5.40238 | 115.48246 | 21233 ft | 393 kts | 50° |
| 2026-05-03 21:48 | 5.42043 | 115.50293 | 20737 ft | 390 kts | 50° |
| 2026-05-03 21:48 | 5.43837 | 115.52329 | 20234 ft | 388 kts | 50° |
| 2026-05-03 21:49 | 5.45751 | 115.54227 | 19717 ft | 388 kts | 40° |
| 2026-05-03 21:49 | 5.47896 | 115.55870 | 19182 ft | 387 kts | 39° |
| 2026-05-03 21:49 | 5.50039 | 115.57497 | 18654 ft | 386 kts | 39° |
| 2026-05-03 21:49 | 5.52182 | 115.59127 | 18094 ft | 386 kts | 39° |
| 2026-05-03 21:50 | 5.54291 | 115.60734 | 17517 ft | 385 kts | 39° |
| 2026-05-03 21:50 | 5.56442 | 115.62372 | 16984 ft | 382 kts | 39° |
| 2026-05-03 21:50 | 5.58540 | 115.63969 | 16591 ft | 374 kts | 39° |
| 2026-05-03 21:50 | 5.60540 | 115.65488 | 16102 ft | 358 kts | 39° |
| 2026-05-03 21:51 | 5.62486 | 115.66968 | 15627 ft | 344 kts | 39° |
| 2026-05-03 21:51 | 5.64397 | 115.68426 | 15159 ft | 344 kts | 39° |
| 2026-05-03 21:51 | 5.66302 | 115.69881 | 14688 ft | 344 kts | 39° |
| 2026-05-03 21:51 | 5.68207 | 115.71337 | 14206 ft | 344 kts | 39° |
| 2026-05-03 21:52 | 5.70112 | 115.72794 | 13737 ft | 345 kts | 39° |
| 2026-05-03 21:52 | 5.72021 | 115.74252 | 13212 ft | 344 kts | 39° |
| 2026-05-03 21:52 | 5.74012 | 115.75590 | 12720 ft | 343 kts | 33° |
| 2026-05-03 21:52 | 5.76044 | 115.76837 | 12230 ft | 341 kts | 33° |
| 2026-05-03 21:53 | 5.78063 | 115.78080 | 11736 ft | 340 kts | 33° |
| 2026-05-03 21:53 | 5.80072 | 115.79317 | 11247 ft | 338 kts | 33° |
| 2026-05-03 21:53 | 5.82052 | 115.80535 | 11000 ft | 323 kts | 33° |
| 2026-05-03 21:53 | 5.83887 | 115.81664 | 10921 ft | 297 kts | 33° |
| 2026-05-03 21:54 | 5.85583 | 115.82709 | 10806 ft | 275 kts | 33° |
| 2026-05-03 21:54 | 5.87166 | 115.83687 | 10700 ft | 261 kts | 33° |
| 2026-05-03 21:54 | 5.88681 | 115.84624 | 10586 ft | 251 kts | 33° |
| 2026-05-03 21:54 | 5.90137 | 115.85527 | 10478 ft | 241 kts | 33° |
| 2026-05-03 21:55 | 5.91534 | 115.86392 | 10379 ft | 231 kts | 33° |
| 2026-05-03 21:55 | 5.92875 | 115.87222 | 10281 ft | 228 kts | 33° |
| 2026-05-03 21:55 | 5.94226 | 115.88058 | 10182 ft | 227 kts | 33° |
| 2026-05-03 21:55 | 5.95569 | 115.88888 | 10082 ft | 227 kts | 33° |
| 2026-05-03 21:56 | 5.96912 | 115.89720 | 9903 ft | 228 kts | 33° |
| 2026-05-03 21:56 | 5.98267 | 115.90559 | 9592 ft | 229 kts | 33° |
| 2026-05-03 21:56 | 5.99618 | 115.91395 | 9300 ft | 227 kts | 33° |
| 2026-05-03 21:56 | 6.00961 | 115.92226 | 9025 ft | 226 kts | 33° |
| 2026-05-03 21:57 | 6.02294 | 115.93049 | 8752 ft | 224 kts | 33° |
| 2026-05-03 21:57 | 6.03619 | 115.93866 | 8483 ft | 223 kts | 32° |
| 2026-05-03 21:57 | 6.04934 | 115.94680 | 8215 ft | 221 kts | 33° |
| 2026-05-03 21:57 | 6.06241 | 115.95488 | 7953 ft | 220 kts | 33° |
| 2026-05-03 21:58 | 6.07539 | 115.96287 | 7692 ft | 219 kts | 32° |
| 2026-05-03 21:58 | 6.08833 | 115.97085 | 7428 ft | 218 kts | 33° |
| 2026-05-03 21:58 | 6.10123 | 115.97883 | 7169 ft | 217 kts | 33° |
| 2026-05-03 21:58 | 6.11405 | 115.98676 | 6915 ft | 216 kts | 32° |
| 2026-05-03 21:59 | 6.12679 | 115.99465 | 6654 ft | 215 kts | 32° |
| 2026-05-03 21:59 | 6.13951 | 116.00253 | 6401 ft | 214 kts | 32° |
| 2026-05-03 21:59 | 6.15201 | 116.01027 | 6133 ft | 213 kts | 32° |
| 2026-05-03 21:59 | 6.16344 | 116.01942 | 5867 ft | 210 kts | 56° |
| 2026-05-03 22:00 | 6.16827 | 116.03289 | 5618 ft | 207 kts | 89° |
| 2026-05-03 22:00 | 6.16507 | 116.04682 | 5363 ft | 207 kts | 113° |
| 2026-05-03 22:00 | 6.15948 | 116.06022 | 5096 ft | 208 kts | 112° |
| 2026-05-03 22:00 | 6.15404 | 116.07364 | 4829 ft | 207 kts | 111° |
| 2026-05-03 22:01 | 6.14865 | 116.08701 | 4562 ft | 206 kts | 111° |
| 2026-05-03 22:01 | 6.14328 | 116.10035 | 4295 ft | 205 kts | 112° |
| 2026-05-03 22:01 | 6.13780 | 116.11376 | 3943 ft | 209 kts | 115° |
| 2026-05-03 22:01 | 6.12828 | 116.12454 | 3585 ft | 212 kts | 155° |
| 2026-05-03 22:02 | 6.11410 | 116.12582 | 3394 ft | 206 kts | 195° |
| 2026-05-03 22:02 | 6.10114 | 116.12062 | 3130 ft | 201 kts | 202° |
| 2026-05-03 22:02 | 6.08835 | 116.11509 | 2870 ft | 198 kts | 202° |
| 2026-05-03 22:02 | 6.07582 | 116.10976 | 2622 ft | 193 kts | 202° |
| 2026-05-03 22:03 | 6.06351 | 116.10454 | 2378 ft | 190 kts | 202° |
| 2026-05-03 22:03 | 6.05134 | 116.09939 | 2130 ft | 189 kts | 202° |
| 2026-05-03 22:03 | 6.03936 | 116.09434 | 1882 ft | 182 kts | 203° |
| 2026-05-03 22:03 | 6.02809 | 116.08957 | 1655 ft | 171 kts | 203° |
| 2026-05-03 22:04 | 6.01725 | 116.08499 | 1449 ft | 166 kts | 204° |
| 2026-05-03 22:04 | 6.00691 | 116.08062 | 1217 ft | 155 kts | 204° |
| 2026-05-03 22:04 | 5.99721 | 116.07653 | 1023 ft | 149 kts | 204° |
| 2026-05-03 22:04 | 5.98775 | 116.07254 | 858 ft | 147 kts | 204° |
| 2026-05-03 22:05 | 5.97839 | 116.06860 | 678 ft | 145 kts | 205° |
| 2026-05-03 22:05 | 5.96913 | 116.06467 | 542 ft | 144 kts | 205° |
| 2026-05-03 22:05 | 5.95990 | 116.06078 | 367 ft | 143 kts | 204° |
| 2026-05-03 22:05 | 5.95077 | 116.05689 | 136 ft | 142 kts | 204° |
| 2026-05-03 22:06 | 5.94190 | 116.05312 | 29 ft | 127 kts | 203° |
| 2026-05-03 22:06 | 5.93539 | 116.05038 | 29 ft | 78 kts | 202° |
| 2026-05-03 22:06 | 5.93167 | 116.04881 | 29 ft | 48 kts | 202° |
| 2026-05-03 22:06 | 5.92907 | 116.04775 | 29 ft | 33 kts | 195° |
| 2026-05-03 22:07 | 5.92701 | 116.04756 | 29 ft | 23 kts | 174° |
| 2026-05-03 22:07 | 5.92598 | 116.04768 | 29 ft | 11 kts | 174° |
| 2026-05-03 22:07 | 5.92555 | 116.04801 | 29 ft | 8 kts | 81° |
| 2026-05-03 22:07 | 5.92594 | 116.04828 | 29 ft | 7 kts | 21° |
| 2026-05-03 22:08 | 5.92635 | 116.04844 | 29 ft | 6 kts | 21° |
| 2026-05-03 22:08 | 5.92668 | 116.04883 | 29 ft | 8 kts | 84° |
| 2026-05-03 22:08 | 5.92653 | 116.04932 | 29 ft | 7 kts | 111° |
| 2026-05-03 22:08 | 5.92627 | 116.04975 | 29 ft | 8 kts | 116° |
| 2026-05-03 22:09 | 5.92608 | 116.05021 | 29 ft | 4 kts | 113° |
| 2026-05-03 22:09 | 5.92600 | 116.05038 | 29 ft | 2 kts | 113° |
| 2026-05-03 22:09 | 5.92599 | 116.05040 | 29 ft | 0 kts | 113° |